Data for 05/13/2016

Time Sea-Level Adjusted Pressure Absolute Pressure Temperature Relative Humidity Dew Point   
(mb) (inHg) (mb) (inHg) (C) (F) (%) (C) (F)
00:05 1025 30.27 854 25.22 3.9 39 77 0.3 32.5
00:10 1025 30.27 854 25.22 3.8 38.8 77 0.2 32.3
00:15 1025 30.27 854 25.22 3.6 38.5 78 0.1 32.2
00:20 1025 30.27 854 25.22 3.5 38.3 77 -0.2 31.7
00:25 1025 30.27 854 25.22 3.3 38 77 -0.3 31.5
00:30 1025 30.27 854 25.22 3.3 37.9 76 -0.5 31
00:35 1025 30.27 854 25.22 3.2 37.8 76 -0.6 31
00:40 1025 30.27 854 25.22 3.2 37.7 76 -0.7 30.7
00:45 1025 30.27 854 25.22 3.1 37.6 76 -0.7 30.7
00:50 1025 30.27 854 25.22 3 37.5 76 -0.7 30.7
00:55 1025 30.27 854 25.22 3 37.3 77 -0.7 30.8
01:00 1025 30.27 854 25.22 2.9 37.2 77 -0.8 30.6
01:05 1025 30.27 855 25.25 2.9 37.2 77 -0.8 30.6
01:10 1026 30.3 855 25.25 2.8 37 77 -0.8 30.5
01:15 1026 30.3 855 25.25 2.8 37.1 77 -0.8 30.6
01:20 1025 30.27 855 25.25 2.8 37 78 -0.7 30.7
01:25 1025 30.27 855 25.25 2.7 36.8 77 -0.9 30.4
01:30 1025 30.27 855 25.25 2.7 36.8 77 -0.9 30.4
01:35 1025 30.27 854 25.22 2.6 36.6 78 -0.9 30.3
01:40 1025 30.27 854 25.22 2.6 36.6 78 -0.9 30.4
01:45 1025 30.27 854 25.22 2.6 36.6 78 -0.9 30.4
01:50 1025 30.27 854 25.22 2.6 36.6 78 -0.9 30.4
01:55 1025 30.27 854 25.22 2.6 36.6 77 -1.1 30
02:00 1025 30.27 854 25.22 2.6 36.7 76 -1.1 29.9
02:05 1025 30.27 855 25.25 2.7 36.8 77 -1 30.2
02:10 1025 30.27 855 25.25 2.7 36.8 77 -1 30.2
02:15 1025 30.27 855 25.25 2.7 36.8 78 -0.9 30.4
02:20 1026 30.3 855 25.25 2.6 36.7 77 -1 30.2
02:25 1026 30.3 855 25.25 2.6 36.7 77 -1.1 30.1
02:30 1026 30.3 855 25.25 2.6 36.7 77 -1 30.1
02:35 1026 30.3 855 25.25 2.5 36.5 78 -1 30.2
02:40 1026 30.3 855 25.25 2.5 36.4 77 -1.1 30.1
02:45 1026 30.3 855 25.25 2.5 36.4 77 -1.2 29.8
02:50 1026 30.3 855 25.25 2.4 36.3 76 -1.3 29.6
02:55 1026 30.3 855 25.25 2.4 36.3 77 -1.3 29.7
03:00 1026 30.3 855 25.25 2.3 36.2 77 -1.3 29.6
03:05 1026 30.3 855 25.25 2.2 36 79 -0.9 30.3
03:10 1026 30.3 855 25.25 2 35.6 82 -0.8 30.6
03:15 1026 30.3 855 25.25 1.9 35.4 83 -0.7 30.7
03:20 1026 30.3 856 25.28 1.8 35.3 83 -0.7 30.7
03:25 1026 30.3 855 25.25 1.8 35.2 83 -0.8 30.5
03:30 1026 30.3 855 25.25 1.8 35.2 81 -1.1 30
03:35 1026 30.3 855 25.25 1.9 35.4 79 -1.3 29.6
03:40 1026 30.3 855 25.25 2 35.7 79 -1.3 29.7
03:45 1026 30.3 855 25.25 2.1 35.7 79 -1.3 29.7
03:50 1026 30.3 856 25.28 2.1 35.7 79 -1.3 29.7
03:55 1026 30.3 856 25.28 2.1 35.7 78 -1.3 29.6
04:00 1026 30.3 856 25.28 2.1 35.7 77 -1.5 29.3
04:05 1027 30.33 856 25.28 2.1 35.7 77 -1.5 29.3
04:10 1027 30.33 856 25.28 2.1 35.8 77 -1.5 29.3
04:15 1027 30.33 856 25.28 2.1 35.9 77 -1.5 29.4
04:20 1027 30.33 856 25.28 2.2 35.9 77 -1.5 29.3
04:25 1027 30.33 856 25.28 2.1 35.8 77 -1.5 29.4
04:30 1027 30.33 856 25.28 2.1 35.7 78 -1.5 29.4
04:35 1027 30.33 856 25.28 2 35.6 78 -1.4 29.4
04:40 1026 30.3 856 25.28 2 35.6 78 -1.5 29.3
04:45 1027 30.33 856 25.28 2 35.6 77 -1.6 29.1
04:50 1027 30.33 856 25.28 1.9 35.5 78 -1.5 29.3
04:55 1027 30.33 856 25.28 1.9 35.4 78 -1.5 29.2
05:00 1027 30.33 856 25.28 1.8 35.3 79 -1.5 29.4
05:05 1026 30.3 856 25.28 1.7 35 79 -1.5 29.3
05:10 1027 30.33 856 25.28 1.6 35 79 -1.6 29.1
05:15 1027 30.33 856 25.28 1.6 34.8 79 -1.7 29
05:20 1027 30.33 856 25.28 1.5 34.7 79 -1.7 28.9
05:25 1027 30.33 856 25.28 1.5 34.7 79 -1.8 28.8
05:30 1027 30.33 856 25.28 1.5 34.7 79 -1.8 28.8
05:35 1027 30.33 856 25.28 1.5 34.7 77 -2.1 28.2
05:40 1027 30.33 856 25.28 1.6 34.8 77 -2.1 28.2
05:45 1027 30.33 856 25.28 1.6 34.9 76 -2.2 28
05:50 1027 30.33 856 25.28 1.5 34.7 77 -2.1 28.3
05:55 1027 30.33 856 25.28 1.4 34.5 78 -2 28.4
06:00 1027 30.33 856 25.28 1.3 34.4 78 -2.1 28.2
06:05 1027 30.33 856 25.28 1.3 34.3 78 -2.1 28.1
06:10 1027 30.33 856 25.28 1.3 34.3 77 -2.2 28
06:15 1027 30.33 856 25.28 1.3 34.3 77 -2.2 28
06:20 1027 30.33 856 25.28 1.3 34.4 77 -2.3 27.9
06:25 1027 30.33 856 25.28 1.4 34.4 77 -2.2 28
06:30 1027 30.33 856 25.28 1.4 34.4 77 -2.3 27.9
06:35 1027 30.33 857 25.31 1.4 34.5 77 -2.2 28
06:40 1027 30.33 857 25.31 1.4 34.6 77 -2.2 28
06:45 1027 30.33 857 25.31 1.4 34.5 77 -2.2 28
06:50 1027 30.33 856 25.28 1.4 34.5 78 -2.1 28.2
06:55 1027 30.33 857 25.31 1.4 34.5 77 -2.2 28.1
07:00 1027 30.33 857 25.31 1.4 34.5 77 -2.2 28.1
07:05 1027 30.33 857 25.31 1.4 34.5 77 -2.2 28
07:10 1027 30.33 857 25.31 1.4 34.6 77 -2.2 28.1
07:15 1028 30.36 857 25.31 1.5 34.6 77 -2.1 28.2
07:20 1028 30.36 857 25.31 1.5 34.7 76 -2.2 28
07:25 1028 30.36 857 25.31 1.5 34.7 77 -2.2 28.1
07:30 1028 30.36 857 25.31 1.6 34.8 76 -2.1 28.2
07:35 1028 30.36 857 25.31 1.6 34.9 76 -2.1 28.2
07:40 1028 30.36 857 25.31 1.6 34.9 76 -2.1 28.2
07:45 1028 30.36 857 25.31 1.7 35 76 -2.1 28.1
07:50 1028 30.36 857 25.31 1.7 35 76 -2.2 28.1
07:55 1028 30.36 857 25.31 1.8 35.2 75 -2.2 28
08:00 1028 30.36 857 25.31 1.8 35.3 75 -2.2 28
08:05 1028 30.36 857 25.31 1.9 35.3 74 -2.2 28
08:10 1028 30.36 857 25.31 1.9 35.5 74 -2.3 27.9
08:15 1028 30.36 857 25.31 2 35.6 74 -2.1 28.3
08:20 1028 30.36 857 25.31 2.1 35.7 74 -2 28.4
08:25 1028 30.36 857 25.31 2.2 36 73 -2.1 28.2
08:30 1028 30.36 857 25.31 2.3 36.1 74 -1.9 28.6
08:35 1028 30.36 857 25.31 2.3 36.2 75 -1.6 29.1
08:40 1028 30.36 857 25.31 2.3 36.2 74 -1.8 28.8
08:45 1028 30.36 857 25.31 2.4 36.3 75 -1.5 29.2
08:50 1028 30.36 857 25.31 2.5 36.5 74 -1.7 28.9
08:55 1028 30.36 857 25.31 2.5 36.5 73 -1.8 28.8
09:00 1028 30.36 857 25.31 2.5 36.5 74 -1.7 28.9
09:05 1028 30.36 857 25.31 2.9 37.2 72 -1.6 29.2
09:10 1028 30.36 857 25.31 3.2 37.7 71 -1.5 29.2
09:15 1028 30.36 857 25.31 3 37.5 71 -1.7 28.9
09:20 1028 30.36 857 25.31 3 37.3 71 -1.7 28.9
09:25 1028 30.36 857 25.31 3.1 37.5 72 -1.4 29.5
09:30 1028 30.36 857 25.31 3.3 38 71 -1.5 29.3
09:35 1028 30.36 857 25.31 3.6 38.5 69 -1.5 29.2
09:40 1028 30.36 857 25.31 3.7 38.6 69 -1.5 29.4
09:45 1028 30.36 857 25.31 3.6 38.4 69 -1.6 29.1
09:50 1028 30.36 857 25.31 3.7 38.7 68 -1.5 29.2
09:55 1028 30.36 857 25.31 3.8 38.8 67 -1.9 28.7
10:00 1028 30.36 857 25.31 3.7 38.7 68 -1.7 29
10:05 1028 30.36 857 25.31 3.6 38.5 69 -1.6 29.1
10:10 1028 30.36 857 25.31 3.6 38.4 68 -1.9 28.6
10:15 1028 30.36 857 25.31 3.5 38.3 68 -1.8 28.7
10:20 1028 30.36 857 25.31 3.8 38.8 66 -2 28.5
10:25 1028 30.36 857 25.31 4 39.2 65 -2 28.4
10:30 1028 30.36 857 25.31 4.3 39.7 63 -2.1 28.2
10:35 1028 30.36 857 25.31 4.4 39.9 64 -1.9 28.6
10:40 1028 30.36 857 25.31 4.2 39.6 64 -1.9 28.5
10:45 1028 30.36 857 25.31 4.1 39.5 64 -2 28.4
10:50 1028 30.36 857 25.31 4.6 40.2 64 -1.7 29
10:55 1028 30.36 857 25.31 4.3 39.8 65 -1.6 29.1
11:00 1028 30.36 857 25.31 4.8 40.6 63 -1.8 28.8
11:05 1028 30.36 857 25.31 4.5 40.1 63 -1.9 28.6
11:10 1028 30.36 857 25.31 4.6 40.3 60 -2.5 27.5
11:15 1028 30.36 857 25.31 4.7 40.4 62 -2 28.4
11:20 1028 30.36 857 25.31 5 40.9 61 -2 28.4
11:25 1028 30.36 857 25.31 4.6 40.4 61 -2.3 27.9
11:30 1028 30.36 857 25.31 4.8 40.6 60 -2.3 27.9
11:35 1028 30.36 857 25.31 5 41 60 -2.1 28.3
11:40 1028 30.36 857 25.31 5.4 41.7 57 -2.5 27.5
11:45 1028 30.36 857 25.31 5.6 42.1 58 -2 28.3
11:50 1028 30.36 857 25.31 5.5 41.9 58 -2 28.4
11:55 1028 30.36 857 25.31 6 42.8 56 -2.1 28.3
12:00 1028 30.36 857 25.31 6.7 44.1 54 -1.9 28.6
12:05 1028 30.36 857 25.31 6.6 43.9 56 -1.4 29.4
12:10 1028 30.36 857 25.31 6.4 43.5 56 -1.8 28.8
12:15 1028 30.36 857 25.31 6.4 43.5 55 -2.1 28.3
12:20 1028 30.36 857 25.31 6.2 43.2 57 -1.6 29.2
12:25 1028 30.36 857 25.31 6.5 43.7 55 -2 28.5
12:30 1028 30.36 857 25.31 6.5 43.8 56 -1.6 29.1
12:35 1028 30.36 857 25.31 6.4 43.6 55 -1.9 28.5
12:40 1028 30.36 857 25.31 5.9 42.7 57 -1.9 28.5
12:45 1028 30.36 857 25.31 6.3 43.3 56 -1.7 28.9
12:50 1028 30.36 857 25.31 6.2 43.1 58 -1.4 29.5
12:55 1028 30.36 857 25.31 6.5 43.7 55 -1.8 28.8
13:00 1028 30.36 857 25.31 6.6 43.9 57 -1.3 29.6
13:05 1028 30.36 857 25.31 6.5 43.7 58 -1.2 29.8
13:10 1028 30.36 857 25.31 6.4 43.5 58 -1.3 29.7
13:15 1028 30.36 857 25.31 6.3 43.4 57 -1.5 29.3
13:20 1028 30.36 857 25.31 6.7 44 56 -1.4 29.5
13:25 1028 30.36 857 25.31 6.5 43.6 56 -1.6 29.1
13:30 1028 30.36 857 25.31 6.3 43.3 57 -1.7 29
13:35 1028 30.36 857 25.31 6.3 43.3 57 -1.6 29.2
13:40 1028 30.36 857 25.31 6.6 44 56 -1.4 29.5
13:45 1028 30.36 857 25.31 6.6 43.9 57 -1.3 29.6
13:50 1027 30.33 857 25.31 6.6 43.9 55 -1.7 29
13:55 1027 30.33 857 25.31 6.5 43.7 57 -1.5 29.4
14:00 1027 30.33 857 25.31 6.4 43.5 56 -1.7 29
14:05 1027 30.33 857 25.31 6.8 44.2 55 -1.6 29.1
14:10 1027 30.33 857 25.31 6.4 43.5 57 -1.5 29.3
14:15 1027 30.33 857 25.31 6.2 43.2 58 -1.5 29.3
14:20 1027 30.33 857 25.31 6.3 43.3 58 -1.5 29.3
14:25 1027 30.33 857 25.31 6.3 43.3 58 -1.3 29.6
14:30 1027 30.33 857 25.31 6.3 43.4 58 -1.4 29.6
14:35 1027 30.33 857 25.31 6.2 43.2 58 -1.5 29.3
14:40 1027 30.33 857 25.31 6.2 43.1 59 -1.3 29.6
14:45 1027 30.33 857 25.31 6.1 43 58 -1.5 29.3
14:50 1027 30.33 857 25.31 6.1 43 59 -1.4 29.5
14:55 1027 30.33 856 25.28 6.2 43.1 58 -1.3 29.6
15:00 1027 30.33 856 25.28 6.2 43.2 59 -1.3 29.7
15:05 1027 30.33 856 25.28 6.2 43.1 58 -1.5 29.3
15:10 1027 30.33 856 25.28 6.1 42.9 59 -1.4 29.5
15:15 1027 30.33 856 25.28 6.2 43.1 58 -1.5 29.2
15:20 1027 30.33 856 25.28 6.1 42.9 59 -1.4 29.5
15:25 1027 30.33 857 25.31 6.2 43.1 58 -1.5 29.3
15:30 1027 30.33 856 25.28 6.2 43.2 58 -1.5 29.3
15:35 1027 30.33 856 25.28 6.2 43.1 58 -1.5 29.3
15:40 1027 30.33 856 25.28 6.3 43.4 57 -1.5 29.2
15:45 1027 30.33 857 25.31 6.5 43.8 57 -1.3 29.6
15:50 1027 30.33 857 25.31 6.5 43.6 57 -1.4 29.5
15:55 1027 30.33 857 25.31 6.5 43.7 57 -1.3 29.6
16:00 1027 30.33 856 25.28 6.4 43.5 58 -1.3 29.6
16:05 1027 30.33 856 25.28 6.1 43 59 -1.4 29.5
16:10 1027 30.33 856 25.28 6.2 43.1 58 -1.5 29.4
16:15 1027 30.33 856 25.28 6.3 43.4 58 -1.3 29.6
16:20 1027 30.33 856 25.28 6.7 44 56 -1.3 29.6
16:25 1027 30.33 856 25.28 6.5 43.8 57 -1.4 29.5
16:30 1027 30.33 856 25.28 6.3 43.4 58 -1.2 29.8
16:35 1027 30.33 856 25.28 6.3 43.3 59 -1.2 29.8
16:40 1027 30.33 856 25.28 6.2 43.2 59 -1.2 29.8
16:45 1027 30.33 856 25.28 6.1 43 59 -1.3 29.7
16:50 1027 30.33 856 25.28 6 42.7 59 -1.4 29.5
16:55 1027 30.33 856 25.28 6 42.7 59 -1.4 29.5
17:00 1027 30.33 856 25.28 6 42.8 58 -1.6 29.2
17:05 1027 30.33 856 25.28 6 42.8 59 -1.5 29.4
17:10 1027 30.33 856 25.28 6 42.8 59 -1.5 29.3
17:15 1027 30.33 856 25.28 6 42.8 59 -1.4 29.4
17:20 1027 30.33 856 25.28 6 42.7 59 -1.5 29.3
17:25 1027 30.33 856 25.28 5.9 42.7 59 -1.4 29.5
17:30 1027 30.33 856 25.28 5.9 42.6 59 -1.5 29.4
17:35 1027 30.33 856 25.28 5.9 42.6 60 -1.4 29.6
17:40 1027 30.33 856 25.28 5.9 42.7 59 -1.3 29.6
17:45 1027 30.33 856 25.28 5.9 42.6 60 -1.3 29.6
17:50 1027 30.33 856 25.28 5.9 42.5 60 -1.2 29.8
17:55 1027 30.33 856 25.28 5.7 42.2 61 -1.3 29.6
18:00 1027 30.33 856 25.28 5.6 42.1 61 -1.4 29.5
18:05 1027 30.33 856 25.28 5.7 42.2 61 -1.3 29.6
18:10 1027 30.33 856 25.28 5.6 42.1 61 -1.2 29.8
18:15 1027 30.33 856 25.28 5.6 42.1 61 -1.3 29.7
18:20 1027 30.33 856 25.28 5.6 42 61 -1.3 29.7
18:25 1027 30.33 856 25.28 5.5 42 61 -1.3 29.7
18:30 1027 30.33 856 25.28 5.5 42 62 -1.2 29.8
18:35 1027 30.33 856 25.28 5.5 42 61 -1.4 29.4
18:40 1027 30.33 856 25.28 5.4 41.8 61 -1.5 29.2
18:45 1027 30.33 856 25.28 5.4 41.7 62 -1.4 29.4
18:50 1027 30.33 856 25.28 5.3 41.5 62 -1.5 29.4
18:55 1027 30.33 856 25.28 5.2 41.4 62 -1.4 29.5
19:00 1027 30.33 856 25.28 5.1 41.3 63 -1.3 29.7
19:05 1027 30.33 856 25.28 5.1 41.1 64 -1.1 30
19:10 1027 30.33 856 25.28 5 41 64 -1.2 29.8
19:15 1027 30.33 856 25.28 4.9 40.9 64 -1.2 29.8
19:20 1027 30.33 856 25.28 4.9 40.8 64 -1.3 29.7
19:25 1027 30.33 856 25.28 4.8 40.6 64 -1.5 29.4
19:30 1027 30.33 856 25.28 4.7 40.5 64 -1.4 29.4
19:35 1027 30.33 856 25.28 4.6 40.3 64 -1.5 29.3
19:40 1027 30.33 856 25.28 4.5 40.2 65 -1.5 29.2
19:45 1027 30.33 856 25.28 4.5 40 65 -1.5 29.3
19:50 1027 30.33 856 25.28 4.4 39.8 66 -1.5 29.3
19:55 1027 30.33 856 25.28 4.3 39.7 66 -1.4 29.4
20:00 1027 30.33 856 25.28 4.2 39.5 66 -1.5 29.2
20:05 1027 30.33 856 25.28 4.1 39.4 67 -1.5 29.3
20:10 1027 30.33 856 25.28 4.1 39.3 67 -1.5 29.2
20:15 1027 30.33 856 25.28 4 39.2 67 -1.5 29.4
20:20 1027 30.33 856 25.28 4 39.1 68 -1.5 29.4
20:25 1027 30.33 856 25.28 3.9 39 68 -1.4 29.4
20:30 1027 30.33 856 25.28 3.8 38.9 68 -1.5 29.2
20:35 1027 30.33 856 25.28 3.8 38.9 68 -1.6 29.1
20:40 1027 30.33 856 25.28 3.8 38.9 68 -1.5 29.3
20:45 1027 30.33 856 25.28 3.7 38.7 69 -1.5 29.3
20:50 1027 30.33 856 25.28 3.7 38.7 68 -1.6 29.2
20:55 1027 30.33 856 25.28 3.7 38.6 69 -1.5 29.2
21:00 1027 30.33 856 25.28 3.6 38.5 69 -1.6 29.1
21:05 1027 30.33 856 25.28 3.6 38.5 69 -1.6 29.2
21:10 1027 30.33 856 25.28 3.5 38.3 69 -1.7 29
21:15 1027 30.33 856 25.28 3.6 38.5 67 -1.9 28.5
21:20 1027 30.33 856 25.28 3.9 39 66 -1.9 28.6
21:25 1027 30.33 856 25.28 3.9 39 66 -1.9 28.7
21:30 1027 30.33 856 25.28 3.8 38.9 66 -1.8 28.7
21:35 1027 30.33 856 25.28 3.8 38.8 66 -2 28.4
21:40 1027 30.33 856 25.28 3.8 38.9 66 -2 28.4
21:45 1027 30.33 856 25.28 3.8 38.8 66 -2 28.4
21:50 1027 30.33 856 25.28 3.7 38.7 66 -2 28.4
21:55 1027 30.33 856 25.28 3.7 38.6 66 -2 28.4
22:00 1027 30.33 856 25.28 3.6 38.5 67 -2 28.3
22:05 1027 30.33 856 25.28 3.5 38.4 66 -2.1 28.1
22:10 1027 30.33 856 25.28 3.5 38.4 67 -2.1 28.3
22:15 1027 30.33 856 25.28 3.5 38.4 66 -2.2 28.1
22:20 1027 30.33 856 25.28 3.6 38.4 66 -2.2 28
22:25 1026 30.3 856 25.28 3.6 38.4 66 -2.2 28
22:30 1026 30.3 856 25.28 3.5 38.4 66 -2.2 28
22:35 1026 30.3 856 25.28 3.5 38.3 66 -2.2 28
22:40 1026 30.3 856 25.28 3.5 38.3 66 -2.3 27.9
22:45 1026 30.3 856 25.28 3.5 38.2 66 -2.3 27.9
22:50 1026 30.3 856 25.28 3.4 38.2 66 -2.3 27.9
22:55 1026 30.3 856 25.28 3.3 38 66 -2.4 27.8
23:00 1026 30.3 856 25.28 3.3 38 66 -2.4 27.6
23:05 1026 30.3 855 25.25 3.4 38.1 65 -2.5 27.5
23:10 1026 30.3 855 25.25 3.4 38.1 66 -2.4 27.6
23:15 1026 30.3 855 25.25 3.4 38.1 66 -2.3 27.8
23:20 1026 30.3 855 25.25 3.3 37.9 67 -2.3 27.9
23:25 1026 30.3 855 25.25 3.2 37.7 68 -2.2 28
23:30 1026 30.3 855 25.25 3.1 37.6 68 -2.2 28
23:35 1026 30.3 855 25.25 3.1 37.7 68 -2.2 28.1
23:40 1026 30.3 855 25.25 3.2 37.7 69 -2 28.4
23:45 1026 30.3 855 25.25 3 37.5 70 -1.8 28.7
23:50 1026 30.3 855 25.25 3 37.5 69 -2 28.4
23:55 1026 30.3 855 25.25 3.1 37.7 69 -2 28.4
24:00 1026 30.3 855 25.25 3.2 37.8 69 -1.9 28.6